• Join FlightAware (Why Join?)
  • Login
  • US Flag 
05:00PM EDT


 

Airport Tracker/Info


-or-


 

Live Flight TrackerFlight Track Log ✈ N577XW ✈ 22-Apr-2013 ✈ KBED - KHVN

Flight Track Log - Related Links

Times and Time Zones

All times are in EDT time to prevent confusion due to time zone crossing. See the N577XW flight status page for this flight to view local times or setup timezone preferences in your user account.

Time Position Orientation Groundspeed Altitude Reporting Facility
EDT Latitude Longitude Course Direction KTS MPH feet Rate Location/Type
02:41PM 42.4667 -71.2667 144° Southeast 186 214 1,000  Level KA90
02:42PM 42.4500 -71.2500 144° Southeast 206 237 1,500 1,380 Climbing KA90
02:43PM 42.4167 -71.3167 236° Southwest 231 266 2,800 780 Climbing KA90
02:44PM 42.3667 -71.4000 231° Southwest 265 305 3,100 360 Climbing KA90
02:45PM 42.3336 -71.4572 232° Southwest 253 291 3,500 1,740 Climbing Boston Center
02:46PM 42.2636 -71.5453 223° Southwest 265 305 6,800 2,580 Climbing Boston Center
02:47PM 42.2119 -71.6161 225° Southwest 280 322 9,300 1,620 Climbing Boston Center
02:48PM 42.1814 -71.7144 247° West 293 337 10,000 300 Climbing Boston Center
02:49PM 42.1547 -71.8183 251° West 295 339 10,000  Level Boston Center
02:50PM 42.1117 -71.9139 239° Southwest 301 346 10,000  Level Boston Center
02:51PM 42.0536 -71.9900 224° Southwest 293 337 10,000  Level Boston Center
02:52PM 41.9933 -72.0742 231° Southwest 290 334 10,000 -240 Level Boston Center
02:53PM 41.9353 -72.1497 224° Southwest 285 328 9,600 -840 Descending Boston Center
02:54PM 41.8833 -72.2225 226° Southwest 274 315 8,400 -840 Descending Boston Center
02:55PM 41.8314 -72.2953 226° Southwest 263 303 8,000 -180 Descending Boston Center
02:57PM 41.7211 -72.4344 223° Southwest 266 306 8,000 -480 Level Boston Center
02:58PM 41.6606 -72.4956 217° Southwest 269 310 6,700 -1,200 Descending Boston Center
02:59PM 41.6000 -72.5539 216° Southwest 267 307 5,600 -900 Descending Boston Center
03:01PM 41.4833 -72.6667 216° Southwest 250 288 4,100 -540 Descending New York TRACON
03:02PM 41.4333 -72.7167 217° Southwest 230 265 4,000 -360 Descending New York TRACON
03:03PM 41.3833 -72.7833 225° Southwest 230 265 3,400 -600 Descending New York TRACON
03:04PM 41.3500 -72.8500 236° Southwest 228 262 2,800 -780 Descending New York TRACON
03:05PM 41.3333 -72.9000 246° West 183 211 1,900 -960 Descending New York TRACON
03:06PM 41.3000 -72.8833 159° South 121 139 900 -1,020 Descending New York TRACON